Time;durP1;ratioP1;P1;durP2;ratioP2;P2;SDS_P1;SDS_P2;PMS_P1;PMS_P2;Temp;Humidity;BMP_temperature;BMP_pressure;BME280_temperature;BME280_humidity;BME280_pressure;Samples;Min_cycle;Max_cycle;Signal;HPM_P1;HPM_P2
2023/06/17 00:00:58;;;;;;;10.63;8.18;;;;;;;13.11;100.00;98479.53;4158028;28;20121;-71
2023/06/17 00:02:58;;;;;;;10.75;7.93;;;;;;;13.10;100.00;98470.41;4156978;28;20596;-71
2023/06/17 00:04:58;;;;;;;11.85;7.35;;;;;;;13.16;100.00;98468.81;4155398;28;20441;-71
2023/06/17 00:07:01;;;;;;;9.60;7.22;;;;;;;13.18;100.00;98472.00;4156450;28;20057;-71
2023/06/17 00:09:02;;;;;;;10.98;8.00;;;;;;;13.17;100.00;98467.63;4158179;28;20127;-71
2023/06/17 00:11:03;;;;;;;11.85;7.82;;;;;;;13.19;100.00;98470.84;4157896;28;20118;-71
2023/06/17 00:13:07;;;;;;;13.45;8.15;;;;;;;13.18;100.00;98462.88;4157221;28;20049;-71
2023/06/17 00:15:08;;;;;;;9.40;6.97;;;;;;;13.16;100.00;98454.16;4157875;28;20049;-71
2023/06/17 00:17:08;;;;;;;10.02;7.03;;;;;;;13.16;100.00;98456.91;4157587;28;20038;-71
2023/06/17 00:19:15;;;;;;;11.27;7.45;;;;;;;13.12;100.00;98454.13;4157456;28;20124;-71
2023/06/17 00:21:15;;;;;;;9.13;6.75;;;;;;;13.16;100.00;98451.38;4155823;28;20037;-71
2023/06/17 00:23:16;;;;;;;11.32;7.53;;;;;;;13.16;100.00;98456.91;4157365;28;20041;-71
2023/06/17 00:25:16;;;;;;;10.75;7.15;;;;;;;13.11;100.00;98460.88;4156654;28;20038;-71
2023/06/17 00:27:17;;;;;;;7.97;6.70;;;;;;;13.11;100.00;98460.88;4158031;28;20390;-71
2023/06/17 00:29:17;;;;;;;10.93;7.57;;;;;;;13.09;100.00;98460.47;4157570;28;20037;-71
2023/06/17 00:31:17;;;;;;;8.27;6.88;;;;;;;13.08;100.00;98458.91;4157554;28;20045;-71
2023/06/17 00:33:17;;;;;;;11.48;7.22;;;;;;;13.10;100.00;98453.72;4157087;28;20052;-71
2023/06/17 00:35:20;;;;;;;10.27;7.63;;;;;;;13.10;100.00;98450.16;4157375;28;20049;-71
2023/06/17 00:37:20;;;;;;;10.10;7.50;;;;;;;13.12;100.00;98451.34;4157334;28;20061;-71
2023/06/17 00:39:20;;;;;;;12.73;7.35;;;;;;;13.24;100.00;98454.94;4157574;28;20049;-71
2023/06/17 00:41:21;;;;;;;10.38;7.18;;;;;;;13.17;100.00;98452.94;4157552;28;20029;-71
2023/06/17 00:43:21;;;;;;;9.00;7.00;;;;;;;13.13;100.00;98455.72;4157006;28;20412;-71
2023/06/17 00:45:22;;;;;;;11.43;7.90;;;;;;;13.11;100.00;98452.53;4157073;28;20029;-71
2023/06/17 00:47:23;;;;;;;9.77;7.00;;;;;;;13.09;100.00;98445.78;4156127;28;20041;-71
2023/06/17 00:49:38;;;;;;;11.43;6.77;;;;;;;13.13;100.00;98446.59;4156054;28;20118;-71
2023/06/17 00:51:39;;;;;;;9.00;6.82;;;;;;;13.14;100.00;98453.72;4156676;28;20087;-71
2023/06/17 00:53:39;;;;;;;8.77;6.53;;;;;;;13.13;100.00;98452.94;4155386;28;20049;-71
2023/06/17 00:55:39;;;;;;;7.82;6.82;;;;;;;13.12;100.00;98439.44;4157006;28;20045;-71
2023/06/17 00:57:40;;;;;;;8.38;6.50;;;;;;;13.10;100.00;98445.41;4153915;28;20034;-71
2023/06/17 00:59:44;;;;;;;10.02;7.05;;;;;;;13.12;100.00;98440.22;4157296;28;20157;-71
2023/06/17 01:01:45;;;;;;;7.68;6.70;;;;;;;13.10;100.00;98434.28;4156860;28;20033;-71
2023/06/17 01:03:46;;;;;;;10.82;7.10;;;;;;;13.09;100.00;98446.59;4156260;28;20041;-71
2023/06/17 01:05:50;;;;;;;9.95;7.43;;;;;;;13.11;100.00;98433.09;4157016;28;21044;-71
2023/06/17 01:08:05;;;;;;;10.05;7.07;;;;;;;13.11;100.00;98435.06;4157438;28;20042;-72
2023/06/17 01:10:15;;;;;;;9.38;7.63;;;;;;;13.13;100.00;98427.13;4156412;28;20501;-72
2023/06/17 01:12:16;;;;;;;12.27;7.60;;;;;;;13.18;100.00;98440.63;4156504;28;20419;-71
2023/06/17 01:14:18;;;;;;;12.77;7.55;;;;;;;13.16;100.00;98435.50;4156059;28;20026;-71
2023/06/17 01:16:19;;;;;;;8.43;6.50;;;;;;;13.12;100.00;98425.56;4157352;28;20472;-71
2023/06/17 01:18:19;;;;;;;11.15;7.15;;;;;;;13.09;100.00;98429.94;4156142;28;20018;-71
2023/06/17 01:20:22;;;;;;;8.23;6.25;;;;;;;13.07;100.00;98434.28;4157022;28;20032;-72
2023/06/17 01:22:23;;;;;;;;;;;;;;;13.03;100.00;98430.72;4155278;28;20285;-71
2023/06/17 01:24:27;;;;;;;10.18;7.45;;;;;;;13.00;100.00;98429.53;4156331;28;20008;-71
2023/06/17 01:26:31;;;;;;;8.75;6.90;;;;;;;13.01;100.00;98430.31;4155848;28;20049;-71
2023/06/17 01:28:34;;;;;;;10.88;7.30;;;;;;;13.03;100.00;98425.16;4154578;28;20437;-71
2023/06/17 01:30:34;;;;;;;9.77;7.30;;;;;;;13.09;100.00;98424.38;4156537;28;20052;-71
2023/06/17 01:32:35;;;;;;;11.27;7.95;;;;;;;13.08;100.00;98425.56;4152734;28;20465;-71
2023/06/17 01:35:13;;;;;;;10.30;7.32;;;;;;;13.09;100.00;98423.56;4153979;28;20375;-71
2023/06/17 01:37:19;;;;;;;11.00;7.65;;;;;;;13.09;100.00;98420.81;4152186;28;20029;-71
2023/06/17 01:39:23;;;;;;;9.73;7.50;;;;;;;13.08;100.00;98422.00;4139875;28;20050;-71
2023/06/17 01:41:29;;;;;;;7.53;6.57;;;;;;;13.04;100.00;98421.19;4140173;28;20038;-71
2023/06/17 01:43:34;;;;;;;9.57;7.10;;;;;;;13.02;100.00;98420.78;4139196;28;20040;-71
2023/06/17 01:45:34;;;;;;;11.55;7.13;;;;;;;12.99;100.00;98424.34;4139745;28;20539;-71
2023/06/17 01:47:35;;;;;;;11.13;7.43;;;;;;;12.98;100.00;98426.31;4140419;28;20041;-71
2023/06/17 01:49:37;;;;;;;12.02;7.57;;;;;;;13.01;100.00;98421.97;4139998;28;20057;-71
2023/06/17 01:51:37;;;;;;;12.77;7.60;;;;;;;13.01;100.00;98433.09;4140044;28;20112;-71
2023/06/17 01:53:38;;;;;;;10.13;7.55;;;;;;;13.00;100.00;98429.53;4139786;28;20050;-71
2023/06/17 01:55:38;;;;;;;11.38;7.57;;;;;;;13.01;100.00;98421.97;4137241;28;20038;-71
2023/06/17 01:57:38;;;;;;;9.80;7.38;;;;;;;13.01;100.00;98419.22;4153959;28;20155;-71
2023/06/17 01:59:39;;;;;;;8.05;7.18;;;;;;;13.05;100.00;98420.00;4140290;28;20153;-71
2023/06/17 02:01:39;;;;;;;10.10;7.50;;;;;;;13.06;100.00;98418.78;4138279;28;20041;-71
2023/06/17 02:03:42;;;;;;;11.73;8.25;;;;;;;13.04;100.00;98419.19;4138752;28;20045;-71
2023/06/17 02:05:42;;;;;;;;;;;;;;;13.06;100.00;98418.78;4140016;28;20088;-71
2023/06/17 02:07:42;;;;;;;10.52;7.13;;;;;;;13.05;100.00;98414.44;4140079;28;19975;-71
2023/06/17 02:09:44;;;;;;;13.07;8.80;;;;;;;13.05;100.00;98420.00;4139470;28;20537;-71
2023/06/17 02:11:44;;;;;;;8.95;7.35;;;;;;;13.06;100.00;98419.59;4140086;28;20782;-71
2023/06/17 02:13:45;;;;;;;11.30;8.05;;;;;;;13.10;100.00;98422.38;4139259;28;20046;-71
2023/06/17 02:15:45;;;;;;;9.98;8.15;;;;;;;13.06;100.00;98419.59;4139587;28;20061;-72
2023/06/17 02:17:45;;;;;;;9.45;8.05;;;;;;;13.11;100.00;98424.75;4139650;28;20048;-71
2023/06/17 02:19:46;;;;;;;14.05;8.00;;;;;;;13.15;100.00;98416.41;4153714;28;20122;-71
2023/06/17 02:21:46;;;;;;;10.75;7.95;;;;;;;13.18;100.00;98419.22;4156427;28;20136;-71
2023/06/17 02:23:48;;;;;;;9.77;8.05;;;;;;;13.15;100.00;98422.75;4155064;28;20065;-71
2023/06/17 02:25:48;;;;;;;11.73;7.75;;;;;;;13.09;100.00;98412.47;4155685;28;20413;-71
2023/06/17 02:27:49;;;;;;;11.77;8.05;;;;;;;13.07;100.00;98418.41;4155999;28;20030;-71
2023/06/17 02:29:49;;;;;;;11.80;7.38;;;;;;;13.08;100.00;98413.66;4155525;28;20052;-71
2023/06/17 02:31:49;;;;;;;11.43;8.40;;;;;;;13.07;100.00;98415.63;4155817;28;20054;-71
2023/06/17 02:33:50;;;;;;;10.52;8.35;;;;;;;13.08;100.00;98416.44;4154038;28;20033;-71
2023/06/17 02:35:50;;;;;;;9.50;8.07;;;;;;;13.05;100.00;98420.00;4154978;28;20513;-71
2023/06/17 02:37:51;;;;;;;11.77;8.30;;;;;;;13.08;100.00;98408.09;4155772;28;20069;-71
2023/06/17 02:39:52;;;;;;;9.15;8.20;;;;;;;13.09;100.00;98413.25;4155166;28;20037;-71
2023/06/17 02:41:52;;;;;;;12.70;8.80;;;;;;;13.07;100.00;98423.16;4156201;28;20038;-71
2023/06/17 02:43:52;;;;;;;11.20;8.15;;;;;;;13.06;100.00;98416.81;4155756;28;20121;-71
2023/06/17 02:45:53;;;;;;;11.68;8.30;;;;;;;13.02;100.00;98420.78;4159042;28;20042;-71
2023/06/17 02:47:53;;;;;;;11.23;8.15;;;;;;;13.02;100.00;98426.34;4159492;28;20041;-71
2023/06/17 02:49:53;;;;;;;11.60;8.45;;;;;;;12.97;100.00;98413.63;4158685;28;20041;-71
2023/06/17 02:51:54;;;;;;;12.80;8.10;;;;;;;12.95;100.00;98416.03;4158964;28;20045;-71
2023/06/17 02:53:54;;;;;;;11.82;8.05;;;;;;;12.97;100.00;98419.19;4158618;28;20052;-71
2023/06/17 02:55:55;;;;;;;9.65;7.32;;;;;;;12.97;100.00;98416.41;4159180;28;20529;-71
2023/06/17 02:57:56;;;;;;;8.93;7.78;;;;;;;13.02;100.00;98415.25;4158950;28;20045;-71
2023/06/17 02:59:56;;;;;;;12.13;7.82;;;;;;;13.03;100.00;98419.59;4158308;28;20096;-71
2023/06/17 03:01:57;;;;;;;10.82;7.25;;;;;;;13.04;100.00;98424.75;4156993;28;20076;-71
2023/06/17 03:04:03;;;;;;;11.68;7.70;;;;;;;13.03;100.00;98420.38;4157585;28;20084;-71
2023/06/17 03:06:05;;;;;;;9.93;7.80;;;;;;;13.00;100.00;98421.19;4158110;28;20205;-71
2023/06/17 03:08:09;;;;;;;14.70;8.15;;;;;;;12.99;100.00;98421.56;4159014;28;20095;-71
2023/06/17 03:10:10;;;;;;;10.80;8.48;;;;;;;12.98;100.00;98422.75;4158178;28;20025;-71
2023/06/17 03:12:11;;;;;;;13.05;8.73;;;;;;;12.96;100.00;98425.94;4158987;28;20029;-71
2023/06/17 03:14:12;;;;;;;12.02;8.30;;;;;;;12.90;100.00;98427.50;4157929;28;20472;-71
2023/06/17 03:16:12;;;;;;;9.65;7.72;;;;;;;12.90;100.00;98425.53;4158621;28;20362;-72
2023/06/17 03:18:13;;;;;;;11.95;8.18;;;;;;;12.90;100.00;98425.53;4158453;28;20034;-71
2023/06/17 03:20:14;;;;;;;10.23;8.07;;;;;;;12.88;100.00;98425.13;4158646;28;20121;-71
2023/06/17 03:22:14;;;;;;;9.88;8.63;;;;;;;12.88;100.00;98422.34;4158178;28;20033;-72
2023/06/17 03:24:14;;;;;;;13.48;8.70;;;;;;;12.88;100.00;98422.34;4157670;28;20017;-71
2023/06/17 03:26:16;;;;;;;9.95;7.68;;;;;;;12.91;100.00;98410.47;4158849;28;20486;-71
2023/06/17 03:28:17;;;;;;;14.15;8.68;;;;;;;12.93;100.00;98413.63;4158017;28;20117;-71
2023/06/17 03:30:17;;;;;;;13.38;8.00;;;;;;;12.98;100.00;98417.19;4158076;28;20025;-71
2023/06/17 03:32:18;;;;;;;12.57;8.13;;;;;;;12.99;100.00;98413.22;4158594;28;20034;-71
2023/06/17 03:34:18;;;;;;;10.93;8.48;;;;;;;13.00;100.00;98414.84;4157254;28;20021;-72
2023/06/17 03:36:19;;;;;;;10.68;7.82;;;;;;;13.01;100.00;98422.78;4158372;28;20124;-71
2023/06/17 03:38:19;;;;;;;17.23;8.73;;;;;;;13.03;100.00;98412.06;4158406;28;20339;-72
2023/06/17 03:40:20;;;;;;;12.55;8.18;;;;;;;13.06;100.00;98407.69;4158300;28;20071;-71
2023/06/17 03:42:20;;;;;;;14.95;9.38;;;;;;;13.06;100.00;98411.25;4157576;28;20056;-71
2023/06/17 03:44:20;;;;;;;16.23;8.90;;;;;;;13.09;100.00;98415.25;4157697;28;20045;-71
2023/06/17 03:46:21;;;;;;;11.18;7.93;;;;;;;13.10;100.00;98408.50;4157652;28;20103;-71
2023/06/17 03:48:21;;;;;;;10.10;7.90;;;;;;;13.08;100.00;98406.13;4155805;28;20057;-71
2023/06/17 03:50:21;;;;;;;14.02;7.80;;;;;;;13.10;100.00;98412.06;4157770;28;20592;-71
2023/06/17 03:52:22;;;;;;;15.05;8.82;;;;;;;13.13;100.00;98402.13;4157474;28;20053;-71
2023/06/17 03:54:22;;;;;;;11.57;9.60;;;;;;;13.09;100.00;98396.59;4156352;28;20124;-71
2023/06/17 03:56:22;;;;;;;20.30;9.68;;;;;;;13.04;100.00;98399.75;4157697;28;20393;-71
2023/06/17 03:58:24;;;;;;;21.58;10.38;;;;;;;13.00;100.00;98396.19;4157867;28;20037;-71
2023/06/17 04:00:26;;;;;;;15.43;9.07;;;;;;;13.04;100.00;98396.97;4158126;28;20042;-71
2023/06/17 04:02:27;;;;;;;11.68;8.35;;;;;;;13.03;100.00;98400.94;4157038;28;20517;-71
2023/06/17 04:04:28;;;;;;;14.88;9.00;;;;;;;13.02;100.00;98398.56;4156420;28;20053;-71
2023/06/17 04:06:28;;;;;;;15.60;9.52;;;;;;;12.96;100.00;98403.72;4157805;28;20430;-71
2023/06/17 04:08:29;;;;;;;12.60;8.65;;;;;;;12.96;100.00;98405.69;4158032;28;20121;-71
2023/06/17 04:10:29;;;;;;;12.27;9.07;;;;;;;12.93;100.00;98404.53;4157885;28;20115;-71
2023/06/17 04:12:30;;;;;;;14.98;9.77;;;;;;;12.92;100.00;98400.16;4156883;28;20041;-71
2023/06/17 04:14:30;;;;;;;15.57;8.90;;;;;;;12.93;100.00;98405.31;4158134;28;20034;-71
2023/06/17 04:16:33;;;;;;;11.65;8.68;;;;;;;12.91;100.00;98404.91;4156947;28;20052;-71
2023/06/17 04:18:33;;;;;;;12.77;9.07;;;;;;;12.91;100.00;98398.56;4157852;28;20561;-71
2023/06/17 04:20:37;;;;;;;12.02;9.32;;;;;;;12.91;100.00;98393.81;4158116;28;20142;-71
2023/06/17 04:22:39;;;;;;;14.93;8.82;;;;;;;12.97;100.00;98396.19;4157108;28;20144;-71
2023/06/17 04:24:39;;;;;;;9.77;8.23;;;;;;;13.04;100.00;98396.97;4157028;28;20537;-71
2023/06/17 04:26:40;;;;;;;12.23;8.55;;;;;;;13.12;100.00;98403.31;4157450;28;20069;-72
2023/06/17 04:28:40;;;;;;;14.27;9.00;;;;;;;13.17;100.00;98397.38;4157717;28;20141;-71
2023/06/17 04:30:41;;;;;;;11.68;8.27;;;;;;;13.27;100.00;98393.84;4157892;28;20128;-71
2023/06/17 04:32:42;;;;;;;13.48;8.60;;;;;;;13.27;100.00;98393.84;4157350;28;20371;-71
2023/06/17 04:34:47;;;;;;;12.18;9.05;;;;;;;13.30;100.00;98401.38;4157532;28;20037;-71
2023/06/17 04:36:49;;;;;;;10.98;8.57;;;;;;;13.29;100.00;98401.78;4157703;28;20369;-71
2023/06/17 04:38:49;;;;;;;12.55;9.52;;;;;;;13.25;100.00;98395.44;4158064;28;20474;-71
2023/06/17 04:40:52;;;;;;;13.55;9.57;;;;;;;13.22;100.00;98391.44;4156745;28;20117;-71
2023/06/17 04:42:53;;;;;;;15.68;9.32;;;;;;;13.22;100.00;98397.00;4156927;28;20641;-71
2023/06/17 04:44:53;;;;;;;14.05;9.52;;;;;;;13.26;100.00;98397.81;4157506;28;20117;-71
2023/06/17 04:46:53;;;;;;;16.88;9.80;;;;;;;13.26;100.00;98397.03;4157368;28;20378;-71
2023/06/17 04:48:54;;;;;;;14.80;10.02;;;;;;;13.25;100.00;98403.78;4157551;28;20196;-71
2023/06/17 04:50:56;;;;;;;13.63;9.02;;;;;;;13.22;100.00;98399.78;4157513;28;20037;-71
2023/06/17 04:53:03;;;;;;;12.02;8.65;;;;;;;13.22;100.00;98394.22;4157211;28;20045;-71
2023/06/17 04:55:04;;;;;;;10.07;8.25;;;;;;;13.22;100.00;98405.34;4157601;28;20103;-71
2023/06/17 04:57:05;;;;;;;12.30;8.52;;;;;;;13.26;100.00;98397.81;4157454;28;20045;-71
2023/06/17 04:59:05;;;;;;;11.15;8.75;;;;;;;13.27;100.00;98399.41;4156289;28;20636;-71
2023/06/17 05:01:05;;;;;;;12.05;7.72;;;;;;;13.41;100.00;98404.94;4156499;28;20120;-71
2023/06/17 05:03:06;;;;;;;10.73;8.88;;;;;;;13.51;100.00;98402.56;4156400;28;20056;-71
2023/06/17 05:05:07;;;;;;;10.20;8.40;;;;;;;13.55;100.00;98401.34;4157142;28;20053;-71
2023/06/17 05:07:07;;;;;;;10.43;7.75;;;;;;;13.62;100.00;98393.00;4156790;28;20429;-71
2023/06/17 05:09:08;;;;;;;11.32;8.00;;;;;;;13.69;100.00;98397.75;4157129;28;20053;-71
2023/06/17 05:11:08;;;;;;;10.98;8.40;;;;;;;13.82;100.00;98404.47;4157266;28;20045;-71
2023/06/17 05:13:09;;;;;;;13.80;8.32;;;;;;;13.85;100.00;98400.88;4156213;28;20121;-71
2023/06/17 05:15:10;;;;;;;10.90;8.05;;;;;;;13.87;100.00;98404.03;4157611;28;20053;-71
2023/06/17 05:17:10;;;;;;;9.65;7.70;;;;;;;13.93;100.00;98408.00;4157448;28;20041;-71
2023/06/17 05:19:10;;;;;;;16.77;8.10;;;;;;;13.96;100.00;98403.63;4156949;28;20064;-71
2023/06/17 05:21:11;;;;;;;11.02;7.88;;;;;;;14.08;100.00;98403.19;4157339;28;20041;-71
2023/06/17 05:23:11;;;;;;;13.52;8.88;;;;;;;14.18;100.00;98407.13;4156932;28;20115;-71
2023/06/17 05:25:11;;;;;;;13.00;8.30;;;;;;;14.21;100.00;98401.53;4156864;28;20077;-71
2023/06/17 05:27:12;;;;;;;12.55;8.57;;;;;;;14.23;100.00;98401.94;4157488;28;20041;-71
2023/06/17 05:29:12;;;;;;;12.13;8.50;;;;;;;14.25;100.00;98401.53;4156988;28;20474;-71
2023/06/17 05:31:13;;;;;;;10.07;7.70;;;;;;;14.27;100.00;98402.72;4156814;28;20043;-71
2023/06/17 05:33:13;;;;;;;8.50;7.53;;;;;;;14.35;100.00;98397.91;4156423;28;20053;-71
2023/06/17 05:35:13;;;;;;;12.15;7.75;;;;;;;14.42;100.00;98397.88;4156993;28;20047;-71
2023/06/17 05:37:14;;;;;;;10.82;7.90;;;;;;;14.46;100.00;98404.22;4156512;28;20041;-71
2023/06/17 05:39:15;;;;;;;9.98;7.45;;;;;;;14.47;100.00;98405.03;4156044;28;20049;-71
2023/06/17 05:41:16;;;;;;;14.15;7.40;;;;;;;14.50;100.00;98409.81;4156733;28;20128;-71
2023/06/17 05:43:16;;;;;;;10.13;8.20;;;;;;;14.52;100.00;98413.75;4156389;28;20113;-71
2023/06/17 05:45:17;;;;;;;9.20;7.68;;;;;;;14.58;100.00;98414.91;4156821;28;20037;-71
2023/06/17 05:47:17;;;;;;;10.45;7.97;;;;;;;14.65;100.00;98424.44;4156431;28;20462;-71
2023/06/17 05:49:17;;;;;;;11.77;7.90;;;;;;;14.68;100.00;98420.84;4156937;28;20096;-71
2023/06/17 05:51:18;;;;;;;8.70;7.57;;;;;;;14.89;100.00;98412.31;4156696;28;20403;-71
2023/06/17 05:53:18;;;;;;;11.10;7.75;;;;;;;15.07;100.00;98412.22;4155731;28;20056;-71
2023/06/17 05:55:19;;;;;;;10.13;7.55;;;;;;;15.07;100.00;98413.00;4156993;28;20132;-71
2023/06/17 05:57:21;;;;;;;10.07;7.07;;;;;;;15.25;100.00;98417.66;4101139;28;20061;-71
2023/06/17 05:59:22;;;;;;;11.80;7.63;;;;;;;15.37;100.00;98409.56;4156237;28;20157;-71
2023/06/17 06:01:23;;;;;;;7.43;6.72;;;;;;;15.52;100.00;98410.22;4155885;28;20045;-71
2023/06/17 06:03:23;;;;;;;12.77;8.68;;;;;;;15.69;100.00;98420.44;4156082;28;20802;-71
2023/06/17 06:05:23;;;;;;;12.68;8.27;;;;;;;15.84;100.00;98421.09;4156575;28;20124;-71
2023/06/17 06:07:23;;;;;;;9.80;7.68;;;;;;;16.03;100.00;98416.91;4155704;28;20547;-71
2023/06/17 06:09:24;;;;;;;10.10;7.15;;;;;;;16.18;100.00;98423.91;4156906;28;20482;-71
2023/06/17 06:11:25;;;;;;;11.07;7.72;;;;;;;16.33;100.00;98418.16;4156300;28;20197;-71
2023/06/17 06:13:25;;;;;;;10.60;7.40;;;;;;;16.37;100.00;98414.09;4155924;28;20087;-71
2023/06/17 06:15:26;;;;;;;8.73;6.60;;;;;;;16.28;100.00;98422.19;4156548;28;20049;-71
2023/06/17 06:17:26;;;;;;;11.57;7.25;;;;;;;16.24;100.00;98418.66;4156483;28;20048;-71
2023/06/17 06:19:26;;;;;;;10.88;8.00;;;;;;;16.40;100.00;98416.06;4155366;28;20448;-71
2023/06/17 06:21:27;;;;;;;10.05;7.22;;;;;;;16.61;100.00;98419.78;4156684;28;20110;-71
2023/06/17 06:23:27;;;;;;;9.98;7.38;;;;;;;16.77;100.00;98422.78;4155793;28;20256;-71
2023/06/17 06:25:27;;;;;;;10.80;7.18;;;;;;;16.79;100.00;98423.94;4155580;28;20133;-71
2023/06/17 06:27:28;;;;;;;7.95;7.15;;;;;;;16.95;100.00;98414.91;4156626;28;20593;-71
2023/06/17 06:29:28;;;;;;;8.32;7.05;;;;;;;16.96;100.00;98418.50;4156424;28;20052;-71
2023/06/17 06:31:28;;;;;;;10.00;7.53;;;;;;;16.95;100.00;98422.50;4156200;28;20095;-71
2023/06/17 06:33:29;;;;;;;11.18;7.93;;;;;;;16.94;100.00;98415.34;4155586;28;20165;-71
2023/06/17 06:35:29;;;;;;;9.93;8.05;;;;;;;16.90;100.00;98421.00;4156123;28;20217;-71
2023/06/17 06:37:29;;;;;;;8.52;6.53;;;;;;;16.94;100.00;98427.31;4156368;28;20141;-71
2023/06/17 06:39:30;;;;;;;7.72;6.82;;;;;;;16.87;100.00;98421.03;4156063;28;20049;-71
2023/06/17 06:41:30;;;;;;;9.73;7.07;;;;;;;16.73;100.00;98422.84;4156104;28;20042;-71
2023/06/17 06:43:31;;;;;;;11.73;7.63;;;;;;;16.67;100.00;98424.47;4156229;28;20069;-71
2023/06/17 06:45:31;;;;;;;10.88;7.47;;;;;;;16.61;100.00;98430.94;4155474;28;20041;-71
2023/06/17 06:47:31;;;;;;;15.85;7.82;;;;;;;16.74;100.00;98426.44;4156379;28;20049;-71
2023/06/17 06:49:33;;;;;;;14.13;8.80;;;;;;;16.68;100.00;98423.28;4156395;28;20046;-71
2023/06/17 06:51:33;;;;;;;8.57;6.95;;;;;;;16.73;100.00;98433.22;4154261;28;20045;-71
2023/06/17 06:53:33;;;;;;;8.82;6.68;;;;;;;16.77;100.00;98436.75;4155519;28;20373;-71
2023/06/17 06:55:34;;;;;;;10.00;7.07;;;;;;;16.91;100.00;98432.97;4156420;28;20326;-71
2023/06/17 06:57:34;;;;;;;8.63;6.80;;;;;;;17.14;100.00;98435.81;4155995;28;20123;-71
2023/06/17 06:59:34;;;;;;;10.65;7.25;;;;;;;17.13;100.00;98434.25;4156291;28;20045;-71
2023/06/17 07:01:35;;;;;;;11.02;7.32;;;;;;;17.10;100.00;98447.03;4155769;28;20306;-71
2023/06/17 07:03:36;;;;;;;8.27;6.90;;;;;;;17.12;100.00;98441.81;4155660;28;20041;-71
2023/06/17 07:05:36;;;;;;;8.05;6.85;;;;;;;17.23;100.00;98444.47;4155551;28;20041;-71
2023/06/17 07:07:37;;;;;;;11.18;7.22;;;;;;;17.19;100.00;98437.31;4155312;28;20509;-71
2023/06/17 07:09:38;;;;;;;9.65;6.85;;;;;;;17.11;98.30;98431.84;4155896;28;20041;-71
2023/06/17 07:11:38;;;;;;;10.17;6.93;;;;;;;17.20;100.00;98436.09;4155901;28;20061;-71
2023/06/17 07:13:41;;;;;;;7.82;6.18;;;;;;;17.27;100.00;98439.59;4155629;28;20061;-71
2023/06/17 07:15:41;;;;;;;8.77;6.45;;;;;;;17.40;100.00;98435.00;4155783;28;20033;-71
2023/06/17 07:17:41;;;;;;;10.32;6.68;;;;;;;17.62;96.19;98441.00;4156264;28;20212;-71
2023/06/17 07:19:42;;;;;;;8.00;6.68;;;;;;;17.80;97.88;98437.16;4156469;28;20057;-71
2023/06/17 07:21:42;;;;;;;10.48;6.43;;;;;;;18.00;95.88;98439.97;4155742;28;20049;-71
2023/06/17 07:23:42;;;;;;;10.73;7.03;;;;;;;18.18;97.07;98437.59;4155760;28;20052;-71
2023/06/17 07:25:43;;;;;;;9.85;6.13;;;;;;;18.28;94.96;98425.41;4155912;28;20119;-71
2023/06/17 07:27:43;;;;;;;7.03;6.32;;;;;;;18.30;95.73;98434.19;4155502;28;20122;-71
2023/06/17 07:29:43;;;;;;;8.45;6.35;;;;;;;18.25;93.59;98432.66;4156172;28;20405;-71
2023/06/17 07:31:44;;;;;;;6.78;5.97;;;;;;;18.14;90.82;98440.50;4158719;28;20379;-71
2023/06/17 07:33:44;;;;;;;9.48;6.53;;;;;;;18.16;93.63;98443.63;4157856;28;20133;-71
2023/06/17 07:35:45;;;;;;;12.05;6.97;;;;;;;18.21;93.36;98436.75;4158402;28;20038;-71
2023/06/17 07:37:45;;;;;;;6.63;5.93;;;;;;;18.09;91.00;98440.97;4158526;28;20037;-71
2023/06/17 07:39:48;;;;;;;9.38;6.55;;;;;;;18.09;92.66;98445.78;4158562;28;20045;-71
2023/06/17 07:41:48;;;;;;;7.97;6.78;;;;;;;18.02;90.98;98435.50;4158806;28;20037;-71
2023/06/17 07:43:48;;;;;;;8.32;5.97;;;;;;;17.96;88.71;98443.63;4158295;28;20356;-71
2023/06/17 07:45:49;;;;;;;8.32;6.03;;;;;;;17.95;89.88;98447.63;4158041;28;20207;-71
2023/06/17 07:47:49;;;;;;;7.05;5.85;;;;;;;17.97;90.77;98438.81;4158543;28;20049;-71
2023/06/17 07:49:49;;;;;;;9.35;6.00;;;;;;;18.03;86.55;98441.91;4158317;28;20051;-71
2023/06/17 07:51:50;;;;;;;9.98;6.30;;;;;;;18.07;88.21;98440.63;4158532;28;20179;-71
2023/06/17 07:53:50;;;;;;;8.82;5.85;;;;;;;18.04;87.87;98454.66;4157993;28;20057;-71
2023/06/17 07:55:52;;;;;;;8.70;6.35;;;;;;;18.16;88.21;98448.44;4157988;28;20500;-71
2023/06/17 07:57:53;;;;;;;10.82;6.47;;;;;;;18.27;87.27;98440.63;4158555;28;20342;-71
2023/06/17 07:59:53;;;;;;;9.55;6.10;;;;;;;18.40;86.84;98441.56;4157710;28;20425;-71
2023/06/17 08:01:54;;;;;;;12.82;6.03;;;;;;;18.34;83.97;98440.47;4158158;28;20275;-71
2023/06/17 08:03:54;;;;;;;8.88;5.45;;;;;;;18.50;85.71;98450.97;4157879;28;20045;-71
2023/06/17 08:05:55;;;;;;;6.65;5.35;;;;;;;18.66;85.05;98441.84;4157977;28;20049;-72
2023/06/17 08:07:56;;;;;;;7.45;5.63;;;;;;;18.87;84.91;98461.03;4158114;28;20050;-71
2023/06/17 08:09:56;;;;;;;11.40;5.95;;;;;;;18.82;82.39;98447.50;4157589;28;20059;-71
2023/06/17 08:11:57;;;;;;;12.15;8.23;;;;;;;18.95;82.32;98444.81;4158404;28;20045;-71
2023/06/17 08:13:58;;;;;;;7.22;5.43;;;;;;;18.95;78.95;98448.44;4157263;28;20049;-71
2023/06/17 08:15:58;;;;;;;9.20;5.22;;;;;;;19.00;81.00;98433.88;4157843;28;20947;-72
2023/06/17 08:17:58;;;;;;;8.82;5.78;;;;;;;19.17;82.90;98440.28;4158027;28;20053;-71
2023/06/17 08:19:59;;;;;;;7.22;5.65;;;;;;;19.26;80.76;98436.88;4157904;28;20046;-71
2023/06/17 08:22:00;;;;;;;8.82;5.57;;;;;;;19.30;80.63;98440.41;4158415;28;20026;-71
2023/06/17 08:24:18;;;;;;;6.40;5.38;;;;;;;19.33;79.75;98442.31;4157319;28;20451;-71
2023/06/17 08:26:18;;;;;;;7.70;5.97;;;;;;;19.36;78.91;98439.44;4157855;28;20129;-72
2023/06/17 08:28:19;;;;;;;7.75;5.47;;;;;;;19.24;78.48;98436.53;4157311;28;20053;-71
2023/06/17 08:30:19;;;;;;;5.70;5.03;;;;;;;19.41;83.04;98435.31;4158261;28;20068;-71
2023/06/17 08:32:20;;;;;;;6.15;5.50;;;;;;;19.44;78.42;98439.25;4157650;28;20037;-71
2023/06/17 08:34:23;;;;;;;9.07;5.88;;;;;;;19.47;79.83;98425.16;4156849;28;20025;-72
2023/06/17 08:36:24;;;;;;;7.32;6.10;;;;;;;19.59;80.23;98420.84;4157727;28;20084;-70
2023/06/17 08:38:24;;;;;;;8.35;6.20;;;;;;;19.69;80.47;98427.41;4157627;28;20372;-71
2023/06/17 08:40:26;;;;;;;7.70;6.03;;;;;;;19.71;78.03;98425.78;4157703;28;20120;-71
2023/06/17 08:42:27;;;;;;;7.75;5.70;;;;;;;19.75;80.74;98423.66;4156477;28;20041;-71
2023/06/17 08:44:31;;;;;;;9.23;6.18;;;;;;;19.73;79.03;98431.72;4156972;28;20462;-71
2023/06/17 08:46:33;;;;;;;9.55;6.22;;;;;;;19.74;78.32;98427.69;4157547;28;20053;-71
2023/06/17 08:48:36;;;;;;;6.43;5.82;;;;;;;19.77;80.27;98432.41;4157617;28;20112;-71
2023/06/17 08:50:38;;;;;;;9.30;6.28;;;;;;;19.72;77.45;98435.75;4157343;28;20060;-71
2023/06/17 08:52:40;;;;;;;7.40;6.07;;;;;;;19.82;77.18;98428.28;4156962;28;20481;-71
2023/06/17 08:54:41;;;;;;;9.07;5.80;;;;;;;19.78;76.42;98424.81;4157518;28;20489;-71
2023/06/17 08:56:41;;;;;;;9.30;5.30;;;;;;;19.95;77.17;98431.16;4157956;28;20037;-71
2023/06/17 08:58:43;;;;;;;6.97;5.55;;;;;;;20.06;76.54;98440.88;4157073;28;20541;-71
2023/06/17 09:00:43;;;;;;;12.93;6.65;;;;;;;20.20;75.60;98437.69;4157176;28;20041;-72
2023/06/17 09:02:47;;;;;;;10.88;5.78;;;;;;;20.25;75.01;98430.72;4156878;28;20571;-72
2023/06/17 09:04:48;;;;;;;23.63;7.10;;;;;;;20.40;77.92;98434.69;4157694;28;20136;-72
2023/06/17 09:06:49;;;;;;;21.15;7.13;;;;;;;20.55;76.45;98425.91;4157215;28;20477;-71
2023/06/17 09:08:51;;;;;;;10.57;8.13;;;;;;;20.57;72.99;98423.41;4157316;28;20065;-72
2023/06/17 09:10:51;;;;;;;8.73;6.53;;;;;;;20.56;71.95;98425.44;4157455;28;20116;-71
2023/06/17 09:12:51;;;;;;;6.97;6.28;;;;;;;20.52;73.91;98424.78;4156606;28;20045;-72
2023/06/17 09:14:56;;;;;;;8.95;6.22;;;;;;;20.58;72.57;98420.16;4157505;28;20308;-71
2023/06/17 09:16:57;;;;;;;18.13;6.68;;;;;;;20.48;71.54;98422.03;4156616;28;20056;-72
2023/06/17 09:18:59;;;;;;;7.88;6.97;;;;;;;20.62;75.02;98423.66;4156994;28;20045;-72
2023/06/17 09:21:01;;;;;;;;;;;;;;;20.63;72.17;98418.81;4157748;28;20036;-72